sensor_id;sensor_type;location;lat;lon;timestamp;temperature;humidity
53711;DHT22;39605;52.704;6.752;2022-10-30T00:00:31;16.00;99.90
53711;DHT22;39605;52.704;6.752;2022-10-30T00:02:57;15.90;99.90
53711;DHT22;39605;52.704;6.752;2022-10-30T00:05:22;16.00;99.90
53711;DHT22;39605;52.704;6.752;2022-10-30T00:07:49;15.90;99.90
53711;DHT22;39605;52.704;6.752;2022-10-30T00:10:16;15.80;99.90
53711;DHT22;39605;52.704;6.752;2022-10-30T00:12:43;15.80;99.90
53711;DHT22;39605;52.704;6.752;2022-10-30T00:15:09;15.70;99.90
53711;DHT22;39605;52.704;6.752;2022-10-30T00:17:35;15.70;99.90
53711;DHT22;39605;52.704;6.752;2022-10-30T00:20:00;15.70;99.90
53711;DHT22;39605;52.704;6.752;2022-10-30T00:22:26;15.70;99.90
53711;DHT22;39605;52.704;6.752;2022-10-30T00:24:52;15.60;99.90
53711;DHT22;39605;52.704;6.752;2022-10-30T00:27:17;15.60;99.90
53711;DHT22;39605;52.704;6.752;2022-10-30T00:29:43;15.60;99.90
53711;DHT22;39605;52.704;6.752;2022-10-30T00:32:09;15.50;99.90
53711;DHT22;39605;52.704;6.752;2022-10-30T00:34:34;15.40;99.90
53711;DHT22;39605;52.704;6.752;2022-10-30T00:37:00;15.50;99.90
53711;DHT22;39605;52.704;6.752;2022-10-30T00:39:26;15.40;99.90
53711;DHT22;39605;52.704;6.752;2022-10-30T00:41:51;15.40;99.90
53711;DHT22;39605;52.704;6.752;2022-10-30T00:44:49;15.30;99.90
53711;DHT22;39605;52.704;6.752;2022-10-30T00:49:55;15.30;99.90
53711;DHT22;39605;52.704;6.752;2022-10-30T00:52:23;15.20;99.90
53711;DHT22;39605;52.704;6.752;2022-10-30T00:54:50;15.20;99.90
53711;DHT22;39605;52.704;6.752;2022-10-30T00:57:17;15.30;99.90
53711;DHT22;39605;52.704;6.752;2022-10-30T00:59:44;15.20;99.90
53711;DHT22;39605;52.704;6.752;2022-10-30T01:02:10;15.10;99.90
53711;DHT22;39605;52.704;6.752;2022-10-30T01:04:36;15.20;99.90
53711;DHT22;39605;52.704;6.752;2022-10-30T01:07:10;15.20;99.90
53711;DHT22;39605;52.704;6.752;2022-10-30T01:09:37;15.10;99.90
53711;DHT22;39605;52.704;6.752;2022-10-30T01:12:04;15.10;99.90
53711;DHT22;39605;52.704;6.752;2022-10-30T01:14:30;15.10;99.90
53711;DHT22;39605;52.704;6.752;2022-10-30T01:20:25;15.10;99.90
53711;DHT22;39605;52.704;6.752;2022-10-30T01:23:08;15.10;99.90
53711;DHT22;39605;52.704;6.752;2022-10-30T01:26:02;15.10;99.90
53711;DHT22;39605;52.704;6.752;2022-10-30T01:32:22;15.00;99.90
53711;DHT22;39605;52.704;6.752;2022-10-30T01:37:31;15.10;99.90
53711;DHT22;39605;52.704;6.752;2022-10-30T01:40:03;15.10;99.90
53711;DHT22;39605;52.704;6.752;2022-10-30T01:42:51;15.00;99.90
53711;DHT22;39605;52.704;6.752;2022-10-30T01:45:34;15.00;99.90
53711;DHT22;39605;52.704;6.752;2022-10-30T01:50:59;15.10;99.90
53711;DHT22;39605;52.704;6.752;2022-10-30T01:53:51;15.10;99.90
53711;DHT22;39605;52.704;6.752;2022-10-30T01:59:01;15.10;99.90
53711;DHT22;39605;52.704;6.752;2022-10-30T02:01:30;15.10;99.90
53711;DHT22;39605;52.704;6.752;2022-10-30T02:04:00;15.10;99.90
53711;DHT22;39605;52.704;6.752;2022-10-30T02:06:26;15.10;99.90
53711;DHT22;39605;52.704;6.752;2022-10-30T02:08:54;15.00;99.90
53711;DHT22;39605;52.704;6.752;2022-10-30T02:11:22;15.00;99.90
53711;DHT22;39605;52.704;6.752;2022-10-30T02:13:49;15.00;99.90
53711;DHT22;39605;52.704;6.752;2022-10-30T02:16:16;15.00;99.90
53711;DHT22;39605;52.704;6.752;2022-10-30T02:18:42;15.00;99.90
53711;DHT22;39605;52.704;6.752;2022-10-30T02:21:08;15.00;99.90
53711;DHT22;39605;52.704;6.752;2022-10-30T02:23:34;15.00;99.90
53711;DHT22;39605;52.704;6.752;2022-10-30T02:26:00;15.10;99.90
53711;DHT22;39605;52.704;6.752;2022-10-30T02:28:25;15.00;99.90
53711;DHT22;39605;52.704;6.752;2022-10-30T02:30:51;15.00;99.90
53711;DHT22;39605;52.704;6.752;2022-10-30T02:33:16;15.10;99.90
53711;DHT22;39605;52.704;6.752;2022-10-30T02:35:42;15.10;99.90
53711;DHT22;39605;52.704;6.752;2022-10-30T02:38:08;15.10;99.90
53711;DHT22;39605;52.704;6.752;2022-10-30T02:40:33;15.10;99.90
53711;DHT22;39605;52.704;6.752;2022-10-30T02:42:59;15.10;99.90
53711;DHT22;39605;52.704;6.752;2022-10-30T02:45:25;15.10;99.90
53711;DHT22;39605;52.704;6.752;2022-10-30T02:47:50;15.20;99.90
53711;DHT22;39605;52.704;6.752;2022-10-30T02:50:16;15.20;99.90
53711;DHT22;39605;52.704;6.752;2022-10-30T02:52:42;15.20;99.90
53711;DHT22;39605;52.704;6.752;2022-10-30T02:55:08;15.20;99.90
53711;DHT22;39605;52.704;6.752;2022-10-30T02:57:33;15.20;99.90
53711;DHT22;39605;52.704;6.752;2022-10-30T02:59:59;15.10;99.90
53711;DHT22;39605;52.704;6.752;2022-10-30T03:02:25;15.10;99.90
53711;DHT22;39605;52.704;6.752;2022-10-30T03:04:51;15.00;99.90
53711;DHT22;39605;52.704;6.752;2022-10-30T03:07:17;15.10;99.90
53711;DHT22;39605;52.704;6.752;2022-10-30T03:09:42;15.00;99.90
53711;DHT22;39605;52.704;6.752;2022-10-30T03:12:08;15.00;99.90
53711;DHT22;39605;52.704;6.752;2022-10-30T03:14:33;14.90;99.90
53711;DHT22;39605;52.704;6.752;2022-10-30T03:16:59;14.80;99.90
53711;DHT22;39605;52.704;6.752;2022-10-30T03:19:25;14.80;99.90
53711;DHT22;39605;52.704;6.752;2022-10-30T03:21:52;14.80;99.90
53711;DHT22;39605;52.704;6.752;2022-10-30T03:24:18;14.80;99.90
53711;DHT22;39605;52.704;6.752;2022-10-30T03:26:43;14.80;99.90
53711;DHT22;39605;52.704;6.752;2022-10-30T03:29:09;14.70;99.90
53711;DHT22;39605;52.704;6.752;2022-10-30T03:31:35;14.70;99.90
53711;DHT22;39605;52.704;6.752;2022-10-30T03:34:00;14.60;99.90
53711;DHT22;39605;52.704;6.752;2022-10-30T03:36:26;14.60;99.90
53711;DHT22;39605;52.704;6.752;2022-10-30T03:38:52;14.50;99.90
53711;DHT22;39605;52.704;6.752;2022-10-30T03:41:17;14.50;99.90
53711;DHT22;39605;52.704;6.752;2022-10-30T03:43:44;14.50;99.90
53711;DHT22;39605;52.704;6.752;2022-10-30T03:46:09;14.50;99.90
53711;DHT22;39605;52.704;6.752;2022-10-30T03:48:35;14.40;99.90
53711;DHT22;39605;52.704;6.752;2022-10-30T03:51:01;14.40;99.90
53711;DHT22;39605;52.704;6.752;2022-10-30T03:53:27;14.40;99.90
53711;DHT22;39605;52.704;6.752;2022-10-30T03:55:58;14.40;99.90
53711;DHT22;39605;52.704;6.752;2022-10-30T03:58:25;14.40;99.90
53711;DHT22;39605;52.704;6.752;2022-10-30T04:00:50;14.30;99.90
53711;DHT22;39605;52.704;6.752;2022-10-30T04:03:16;14.20;99.90
53711;DHT22;39605;52.704;6.752;2022-10-30T04:05:42;14.20;99.90
53711;DHT22;39605;52.704;6.752;2022-10-30T04:08:11;14.10;99.90
53711;DHT22;39605;52.704;6.752;2022-10-30T04:10:40;14.20;99.90
53711;DHT22;39605;52.704;6.752;2022-10-30T04:13:06;14.10;99.90
53711;DHT22;39605;52.704;6.752;2022-10-30T04:15:33;14.10;99.90
53711;DHT22;39605;52.704;6.752;2022-10-30T04:17:59;14.10;99.90
53711;DHT22;39605;52.704;6.752;2022-10-30T04:20:26;14.10;99.90
53711;DHT22;39605;52.704;6.752;2022-10-30T04:23:00;14.10;99.90
53711;DHT22;39605;52.704;6.752;2022-10-30T04:25:26;14.00;99.90
53711;DHT22;39605;52.704;6.752;2022-10-30T04:27:53;14.00;99.90
53711;DHT22;39605;52.704;6.752;2022-10-30T04:30:20;14.00;99.90
53711;DHT22;39605;52.704;6.752;2022-10-30T04:32:47;14.00;99.90
53711;DHT22;39605;52.704;6.752;2022-10-30T04:35:14;13.90;99.90
53711;DHT22;39605;52.704;6.752;2022-10-30T04:37:40;13.90;99.90
53711;DHT22;39605;52.704;6.752;2022-10-30T04:40:06;14.00;99.90
53711;DHT22;39605;52.704;6.752;2022-10-30T04:42:32;13.90;99.90
53711;DHT22;39605;52.704;6.752;2022-10-30T04:44:59;13.90;99.90
53711;DHT22;39605;52.704;6.752;2022-10-30T04:47:27;13.90;99.90
53711;DHT22;39605;52.704;6.752;2022-10-30T04:49:53;13.90;99.90
53711;DHT22;39605;52.704;6.752;2022-10-30T04:52:19;13.90;99.90
53711;DHT22;39605;52.704;6.752;2022-10-30T04:54:44;13.90;99.90
53711;DHT22;39605;52.704;6.752;2022-10-30T04:57:10;13.90;99.90
53711;DHT22;39605;52.704;6.752;2022-10-30T04:59:36;13.90;99.90
53711;DHT22;39605;52.704;6.752;2022-10-30T05:02:01;13.80;99.90
53711;DHT22;39605;52.704;6.752;2022-10-30T05:04:27;13.80;99.90
53711;DHT22;39605;52.704;6.752;2022-10-30T05:06:53;13.80;99.90
53711;DHT22;39605;52.704;6.752;2022-10-30T05:09:18;13.80;99.90
53711;DHT22;39605;52.704;6.752;2022-10-30T05:11:44;13.80;99.90
53711;DHT22;39605;52.704;6.752;2022-10-30T05:14:10;13.70;99.90
53711;DHT22;39605;52.704;6.752;2022-10-30T05:16:35;13.70;99.90
53711;DHT22;39605;52.704;6.752;2022-10-30T05:19:01;13.70;99.90
53711;DHT22;39605;52.704;6.752;2022-10-30T05:21:26;13.70;99.90
53711;DHT22;39605;52.704;6.752;2022-10-30T05:23:52;13.60;99.90
53711;DHT22;39605;52.704;6.752;2022-10-30T05:26:18;13.60;99.90
53711;DHT22;39605;52.704;6.752;2022-10-30T05:28:44;13.60;99.90
53711;DHT22;39605;52.704;6.752;2022-10-30T05:31:10;13.60;99.90
53711;DHT22;39605;52.704;6.752;2022-10-30T05:33:35;13.60;99.90
53711;DHT22;39605;52.704;6.752;2022-10-30T05:36:01;13.60;99.90
53711;DHT22;39605;52.704;6.752;2022-10-30T05:38:26;13.50;99.90
53711;DHT22;39605;52.704;6.752;2022-10-30T05:40:52;13.50;99.90
53711;DHT22;39605;52.704;6.752;2022-10-30T05:43:18;13.50;99.90
53711;DHT22;39605;52.704;6.752;2022-10-30T05:45:43;13.50;99.90
53711;DHT22;39605;52.704;6.752;2022-10-30T05:48:09;13.40;99.90
53711;DHT22;39605;52.704;6.752;2022-10-30T05:50:34;13.40;99.90
53711;DHT22;39605;52.704;6.752;2022-10-30T05:53:02;13.50;99.90
53711;DHT22;39605;52.704;6.752;2022-10-30T05:55:28;13.50;99.90
53711;DHT22;39605;52.704;6.752;2022-10-30T05:57:59;13.40;99.90
53711;DHT22;39605;52.704;6.752;2022-10-30T06:00:28;13.50;99.90
53711;DHT22;39605;52.704;6.752;2022-10-30T06:03:05;13.50;99.90
53711;DHT22;39605;52.704;6.752;2022-10-30T06:05:33;13.50;99.90
53711;DHT22;39605;52.704;6.752;2022-10-30T06:08:00;13.40;99.90
53711;DHT22;39605;52.704;6.752;2022-10-30T06:10:26;13.50;99.90
53711;DHT22;39605;52.704;6.752;2022-10-30T06:13:03;13.40;99.90
53711;DHT22;39605;52.704;6.752;2022-10-30T06:15:29;13.50;99.90
53711;DHT22;39605;52.704;6.752;2022-10-30T06:17:55;13.50;99.90
53711;DHT22;39605;52.704;6.752;2022-10-30T06:20:23;13.50;99.90
53711;DHT22;39605;52.704;6.752;2022-10-30T06:23:09;13.50;99.90
53711;DHT22;39605;52.704;6.752;2022-10-30T06:25:35;13.50;99.90
53711;DHT22;39605;52.704;6.752;2022-10-30T06:28:01;13.50;99.90
53711;DHT22;39605;52.704;6.752;2022-10-30T06:30:27;13.50;99.90
53711;DHT22;39605;52.704;6.752;2022-10-30T06:32:57;13.50;99.90
53711;DHT22;39605;52.704;6.752;2022-10-30T06:35:23;13.60;99.90
53711;DHT22;39605;52.704;6.752;2022-10-30T06:37:49;13.60;99.90
53711;DHT22;39605;52.704;6.752;2022-10-30T06:40:16;13.60;99.90
53711;DHT22;39605;52.704;6.752;2022-10-30T06:42:45;13.60;99.90
53711;DHT22;39605;52.704;6.752;2022-10-30T06:45:12;13.60;99.90
53711;DHT22;39605;52.704;6.752;2022-10-30T06:47:39;13.60;99.90
53711;DHT22;39605;52.704;6.752;2022-10-30T06:50:06;13.70;99.90
53711;DHT22;39605;52.704;6.752;2022-10-30T06:52:32;13.70;99.90
53711;DHT22;39605;52.704;6.752;2022-10-30T06:54:58;13.70;99.90
53711;DHT22;39605;52.704;6.752;2022-10-30T06:57:24;13.80;99.90
53711;DHT22;39605;52.704;6.752;2022-10-30T06:59:49;13.80;99.90
53711;DHT22;39605;52.704;6.752;2022-10-30T07:02:15;13.80;99.90
53711;DHT22;39605;52.704;6.752;2022-10-30T07:04:41;13.80;99.90
53711;DHT22;39605;52.704;6.752;2022-10-30T07:07:06;13.80;99.90
53711;DHT22;39605;52.704;6.752;2022-10-30T07:09:32;13.80;99.90
53711;DHT22;39605;52.704;6.752;2022-10-30T07:11:57;13.90;99.90
53711;DHT22;39605;52.704;6.752;2022-10-30T07:14:23;13.90;99.90
53711;DHT22;39605;52.704;6.752;2022-10-30T07:16:49;13.90;99.90
53711;DHT22;39605;52.704;6.752;2022-10-30T07:19:15;14.00;99.90
53711;DHT22;39605;52.704;6.752;2022-10-30T07:21:40;14.00;99.90
53711;DHT22;39605;52.704;6.752;2022-10-30T07:24:06;14.00;99.90
53711;DHT22;39605;52.704;6.752;2022-10-30T07:26:32;14.00;99.90
53711;DHT22;39605;52.704;6.752;2022-10-30T07:29:03;14.10;99.90
53711;DHT22;39605;52.704;6.752;2022-10-30T07:31:28;14.20;99.90
53711;DHT22;39605;52.704;6.752;2022-10-30T07:33:54;14.20;99.90
53711;DHT22;39605;52.704;6.752;2022-10-30T07:36:20;14.20;99.90
53711;DHT22;39605;52.704;6.752;2022-10-30T07:38:50;14.30;99.90
53711;DHT22;39605;52.704;6.752;2022-10-30T07:41:19;14.30;99.90
53711;DHT22;39605;52.704;6.752;2022-10-30T07:43:46;14.30;99.90
53711;DHT22;39605;52.704;6.752;2022-10-30T07:46:13;14.40;99.90
53711;DHT22;39605;52.704;6.752;2022-10-30T07:48:39;14.50;99.90
53711;DHT22;39605;52.704;6.752;2022-10-30T07:51:05;14.60;99.90
53711;DHT22;39605;52.704;6.752;2022-10-30T07:53:31;14.70;99.90
53711;DHT22;39605;52.704;6.752;2022-10-30T07:55:56;14.70;99.90
53711;DHT22;39605;52.704;6.752;2022-10-30T07:58:22;14.70;99.90
53711;DHT22;39605;52.704;6.752;2022-10-30T08:00:48;14.90;99.90
53711;DHT22;39605;52.704;6.752;2022-10-30T08:03:14;14.90;99.90
53711;DHT22;39605;52.704;6.752;2022-10-30T08:05:39;15.10;99.90
53711;DHT22;39605;52.704;6.752;2022-10-30T08:08:06;15.30;99.90
53711;DHT22;39605;52.704;6.752;2022-10-30T08:10:32;15.50;99.90
53711;DHT22;39605;52.704;6.752;2022-10-30T08:12:58;15.50;99.90
53711;DHT22;39605;52.704;6.752;2022-10-30T08:15:24;15.60;99.90
53711;DHT22;39605;52.704;6.752;2022-10-30T08:17:50;15.80;99.90
53711;DHT22;39605;52.704;6.752;2022-10-30T08:20:18;16.00;99.90
53711;DHT22;39605;52.704;6.752;2022-10-30T08:22:48;16.30;99.90
53711;DHT22;39605;52.704;6.752;2022-10-30T08:25:16;16.80;99.90
53711;DHT22;39605;52.704;6.752;2022-10-30T08:28:00;17.40;99.90
53711;DHT22;39605;52.704;6.752;2022-10-30T08:30:29;17.80;99.90
53711;DHT22;39605;52.704;6.752;2022-10-30T08:33:03;18.30;99.90
53711;DHT22;39605;52.704;6.752;2022-10-30T08:35:29;18.90;99.90
53711;DHT22;39605;52.704;6.752;2022-10-30T08:37:56;19.60;99.90
53711;DHT22;39605;52.704;6.752;2022-10-30T08:40:22;20.40;99.90
53711;DHT22;39605;52.704;6.752;2022-10-30T08:42:52;21.00;99.90
53711;DHT22;39605;52.704;6.752;2022-10-30T08:45:19;21.40;99.90
53711;DHT22;39605;52.704;6.752;2022-10-30T08:47:45;21.80;99.90
53711;DHT22;39605;52.704;6.752;2022-10-30T08:50:10;22.00;99.90
53711;DHT22;39605;52.704;6.752;2022-10-30T08:52:36;22.30;99.90
53711;DHT22;39605;52.704;6.752;2022-10-30T08:55:01;22.50;99.90
53711;DHT22;39605;52.704;6.752;2022-10-30T08:57:27;22.40;99.90
53711;DHT22;39605;52.704;6.752;2022-10-30T08:59:53;22.10;99.90
53711;DHT22;39605;52.704;6.752;2022-10-30T09:02:18;22.00;99.90
53711;DHT22;39605;52.704;6.752;2022-10-30T09:04:44;22.10;99.90
53711;DHT22;39605;52.704;6.752;2022-10-30T09:07:10;22.20;99.90
53711;DHT22;39605;52.704;6.752;2022-10-30T09:09:35;22.40;99.90
53711;DHT22;39605;52.704;6.752;2022-10-30T09:12:01;22.60;99.90
53711;DHT22;39605;52.704;6.752;2022-10-30T09:14:26;22.70;99.90
53711;DHT22;39605;52.704;6.752;2022-10-30T09:16:53;22.70;99.90
53711;DHT22;39605;52.704;6.752;2022-10-30T09:19:19;22.70;99.90
53711;DHT22;39605;52.704;6.752;2022-10-30T09:21:45;22.70;99.90
53711;DHT22;39605;52.704;6.752;2022-10-30T09:24:10;22.70;99.90
53711;DHT22;39605;52.704;6.752;2022-10-30T09:26:36;22.90;99.90
53711;DHT22;39605;52.704;6.752;2022-10-30T09:29:01;23.20;99.90
53711;DHT22;39605;52.704;6.752;2022-10-30T09:31:27;23.40;99.90
53711;DHT22;39605;52.704;6.752;2022-10-30T09:33:53;23.40;99.90
53711;DHT22;39605;52.704;6.752;2022-10-30T09:36:18;23.50;99.90
53711;DHT22;39605;52.704;6.752;2022-10-30T09:38:44;23.50;99.90
53711;DHT22;39605;52.704;6.752;2022-10-30T09:41:14;23.40;99.90
53711;DHT22;39605;52.704;6.752;2022-10-30T09:52:25;24.40;99.90
53711;DHT22;39605;52.704;6.752;2022-10-30T10:00:39;24.60;99.90
53711;DHT22;39605;52.704;6.752;2022-10-30T10:05:54;24.50;99.90
53711;DHT22;39605;52.704;6.752;2022-10-30T10:08:28;24.30;99.90
53711;DHT22;39605;52.704;6.752;2022-10-30T10:11:00;24.10;99.90
53711;DHT22;39605;52.704;6.752;2022-10-30T10:13:38;24.00;99.90
53711;DHT22;39605;52.704;6.752;2022-10-30T10:16:21;23.80;99.90
53711;DHT22;39605;52.704;6.752;2022-10-30T10:18:56;23.70;99.90
53711;DHT22;39605;52.704;6.752;2022-10-30T10:21:23;23.70;99.90
53711;DHT22;39605;52.704;6.752;2022-10-30T10:23:52;23.80;99.90
53711;DHT22;39605;52.704;6.752;2022-10-30T10:26:25;24.00;99.90
53711;DHT22;39605;52.704;6.752;2022-10-30T10:28:55;24.20;99.90
53711;DHT22;39605;52.704;6.752;2022-10-30T10:31:45;24.30;99.90
53711;DHT22;39605;52.704;6.752;2022-10-30T10:34:20;24.50;99.90
53711;DHT22;39605;52.704;6.752;2022-10-30T10:42:38;24.70;99.90
53711;DHT22;39605;52.704;6.752;2022-10-30T10:45:32;24.70;99.90
53711;DHT22;39605;52.704;6.752;2022-10-30T10:48:44;24.70;99.90
53711;DHT22;39605;52.704;6.752;2022-10-30T10:51:27;24.40;99.90
53711;DHT22;39605;52.704;6.752;2022-10-30T10:53:54;24.20;99.90
53711;DHT22;39605;52.704;6.752;2022-10-30T10:56:33;24.00;99.90
53711;DHT22;39605;52.704;6.752;2022-10-30T10:59:10;23.90;99.90
53711;DHT22;39605;52.704;6.752;2022-10-30T11:01:43;23.90;99.90
53711;DHT22;39605;52.704;6.752;2022-10-30T11:04:29;23.80;99.90
53711;DHT22;39605;52.704;6.752;2022-10-30T11:06:57;23.60;99.90
53711;DHT22;39605;52.704;6.752;2022-10-30T11:09:23;23.20;99.90
53711;DHT22;39605;52.704;6.752;2022-10-30T11:11:53;23.00;99.90
53711;DHT22;39605;52.704;6.752;2022-10-30T11:14:25;22.80;99.90
53711;DHT22;39605;52.704;6.752;2022-10-30T11:17:09;22.60;99.90
53711;DHT22;39605;52.704;6.752;2022-10-30T11:19:37;22.30;99.90
53711;DHT22;39605;52.704;6.752;2022-10-30T11:22:30;22.20;99.90
53711;DHT22;39605;52.704;6.752;2022-10-30T11:24:55;22.20;99.90
53711;DHT22;39605;52.704;6.752;2022-10-30T11:27:26;22.00;99.90
53711;DHT22;39605;52.704;6.752;2022-10-30T11:30:01;22.00;99.90
53711;DHT22;39605;52.704;6.752;2022-10-30T11:32:29;21.90;99.90
53711;DHT22;39605;52.704;6.752;2022-10-30T11:35:17;21.80;99.90
53711;DHT22;39605;52.704;6.752;2022-10-30T11:37:44;21.90;99.90
53711;DHT22;39605;52.704;6.752;2022-10-30T11:42:41;21.90;99.90
53711;DHT22;39605;52.704;6.752;2022-10-30T11:45:24;21.80;99.90
53711;DHT22;39605;52.704;6.752;2022-10-30T11:47:52;21.90;99.90
53711;DHT22;39605;52.704;6.752;2022-10-30T11:50:23;21.80;99.90
53711;DHT22;39605;52.704;6.752;2022-10-30T11:52:55;21.90;99.90
53711;DHT22;39605;52.704;6.752;2022-10-30T11:55:32;22.00;99.90
53711;DHT22;39605;52.704;6.752;2022-10-30T11:58:00;22.00;99.90
53711;DHT22;39605;52.704;6.752;2022-10-30T12:00:36;22.10;99.90
53711;DHT22;39605;52.704;6.752;2022-10-30T12:03:02;22.40;99.90
53711;DHT22;39605;52.704;6.752;2022-10-30T12:05:40;22.80;99.90
53711;DHT22;39605;52.704;6.752;2022-10-30T12:10:33;23.40;99.90
53711;DHT22;39605;52.704;6.752;2022-10-30T12:13:05;23.30;99.90
53711;DHT22;39605;52.704;6.752;2022-10-30T12:15:35;23.40;99.90
53711;DHT22;39605;52.704;6.752;2022-10-30T12:18:07;23.50;99.90
53711;DHT22;39605;52.704;6.752;2022-10-30T12:20:36;23.50;99.90
53711;DHT22;39605;52.704;6.752;2022-10-30T12:23:10;23.30;99.90
53711;DHT22;39605;52.704;6.752;2022-10-30T12:25:37;23.30;99.90
53711;DHT22;39605;52.704;6.752;2022-10-30T12:28:03;23.20;99.90
53711;DHT22;39605;52.704;6.752;2022-10-30T12:30:34;23.00;99.90
53711;DHT22;39605;52.704;6.752;2022-10-30T12:33:28;22.70;99.90
53711;DHT22;39605;52.704;6.752;2022-10-30T12:36:00;22.40;99.90
53711;DHT22;39605;52.704;6.752;2022-10-30T12:41:17;21.80;99.90
53711;DHT22;39605;52.704;6.752;2022-10-30T12:43:57;21.60;99.90
53711;DHT22;39605;52.704;6.752;2022-10-30T12:49:05;21.40;99.90
53711;DHT22;39605;52.704;6.752;2022-10-30T12:57:14;21.60;99.90
53711;DHT22;39605;52.704;6.752;2022-10-30T13:02:37;21.60;99.90
53711;DHT22;39605;52.704;6.752;2022-10-30T13:05:25;21.60;99.90
53711;DHT22;39605;52.704;6.752;2022-10-30T13:13:47;21.60;99.90
53711;DHT22;39605;52.704;6.752;2022-10-30T13:16:23;21.60;99.90
53711;DHT22;39605;52.704;6.752;2022-10-30T13:18:54;21.70;99.90
53711;DHT22;39605;52.704;6.752;2022-10-30T13:23:57;21.70;99.90
53711;DHT22;39605;52.704;6.752;2022-10-30T13:29:21;21.70;99.90
53711;DHT22;39605;52.704;6.752;2022-10-30T13:34:50;21.60;99.90
53711;DHT22;39605;52.704;6.752;2022-10-30T13:37:29;21.60;99.90
53711;DHT22;39605;52.704;6.752;2022-10-30T13:40:18;21.50;99.90
53711;DHT22;39605;52.704;6.752;2022-10-30T13:43:05;21.40;99.90
53711;DHT22;39605;52.704;6.752;2022-10-30T13:45:49;21.40;99.90
53711;DHT22;39605;52.704;6.752;2022-10-30T13:51:39;21.20;99.90
53711;DHT22;39605;52.704;6.752;2022-10-30T13:59:59;21.00;99.90
53711;DHT22;39605;52.704;6.752;2022-10-30T14:02:52;21.00;99.90
53711;DHT22;39605;52.704;6.752;2022-10-30T14:08:41;21.00;99.90
53711;DHT22;39605;52.704;6.752;2022-10-30T14:11:13;20.90;99.90
53711;DHT22;39605;52.704;6.752;2022-10-30T14:14:02;20.80;99.90
53711;DHT22;39605;52.704;6.752;2022-10-30T14:16:44;20.70;99.90
53711;DHT22;39605;52.704;6.752;2022-10-30T14:19:17;20.70;99.90
53711;DHT22;39605;52.704;6.752;2022-10-30T14:21:58;20.60;99.90
53711;DHT22;39605;52.704;6.752;2022-10-30T14:24:28;20.60;99.90
53711;DHT22;39605;52.704;6.752;2022-10-30T14:39:52;20.40;99.90
53711;DHT22;39605;52.704;6.752;2022-10-30T14:42:25;20.50;99.90
53711;DHT22;39605;52.704;6.752;2022-10-30T14:47:49;20.60;99.90
53711;DHT22;39605;52.704;6.752;2022-10-30T14:57:53;20.60;99.90
53711;DHT22;39605;52.704;6.752;2022-10-30T15:05:53;20.40;99.90
53711;DHT22;39605;52.704;6.752;2022-10-30T15:08:38;20.30;99.90
53711;DHT22;39605;52.704;6.752;2022-10-30T15:14:04;20.00;99.90
53711;DHT22;39605;52.704;6.752;2022-10-30T15:16:35;19.90;99.90
53711;DHT22;39605;52.704;6.752;2022-10-30T15:19:05;19.80;99.90
53711;DHT22;39605;52.704;6.752;2022-10-30T15:21:38;19.70;99.90
53711;DHT22;39605;52.704;6.752;2022-10-30T15:24:20;19.70;99.90
53711;DHT22;39605;52.704;6.752;2022-10-30T15:26:52;19.60;99.90
53711;DHT22;39605;52.704;6.752;2022-10-30T15:29:26;19.50;99.90
53711;DHT22;39605;52.704;6.752;2022-10-30T15:32:17;19.40;99.90
53711;DHT22;39605;52.704;6.752;2022-10-30T15:34:58;19.30;99.90
53711;DHT22;39605;52.704;6.752;2022-10-30T15:37:30;19.20;99.90
53711;DHT22;39605;52.704;6.752;2022-10-30T15:40:16;19.10;99.90
53711;DHT22;39605;52.704;6.752;2022-10-30T15:42:42;19.00;99.90
53711;DHT22;39605;52.704;6.752;2022-10-30T15:45:23;18.90;99.90
53711;DHT22;39605;52.704;6.752;2022-10-30T15:50:44;18.70;99.90
53711;DHT22;39605;52.704;6.752;2022-10-30T15:53:18;18.60;99.90
53711;DHT22;39605;52.704;6.752;2022-10-30T15:55:45;18.50;99.90
53711;DHT22;39605;52.704;6.752;2022-10-30T15:58:15;18.50;99.90
53711;DHT22;39605;52.704;6.752;2022-10-30T16:00:41;18.40;99.90
53711;DHT22;39605;52.704;6.752;2022-10-30T16:03:18;18.40;99.90
53711;DHT22;39605;52.704;6.752;2022-10-30T16:05:44;18.30;99.90
53711;DHT22;39605;52.704;6.752;2022-10-30T16:08:19;18.20;99.90
53711;DHT22;39605;52.704;6.752;2022-10-30T16:10:45;18.20;99.90
53711;DHT22;39605;52.704;6.752;2022-10-30T16:13:32;18.20;99.90
53711;DHT22;39605;52.704;6.752;2022-10-30T16:16:00;18.10;99.90
53711;DHT22;39605;52.704;6.752;2022-10-30T16:18:32;17.90;99.90
53711;DHT22;39605;52.704;6.752;2022-10-30T16:21:05;17.90;99.90
53711;DHT22;39605;52.704;6.752;2022-10-30T16:23:46;17.80;99.90
53711;DHT22;39605;52.704;6.752;2022-10-30T16:29:06;17.60;99.90
53711;DHT22;39605;52.704;6.752;2022-10-30T16:31:34;17.60;99.90
53711;DHT22;39605;52.704;6.752;2022-10-30T16:34:02;17.50;99.90
53711;DHT22;39605;52.704;6.752;2022-10-30T16:36:28;17.50;99.90
53711;DHT22;39605;52.704;6.752;2022-10-30T16:38:54;17.40;99.90
53711;DHT22;39605;52.704;6.752;2022-10-30T16:41:21;17.40;99.90
53711;DHT22;39605;52.704;6.752;2022-10-30T16:44:08;17.30;99.90
53711;DHT22;39605;52.704;6.752;2022-10-30T16:46:56;17.40;99.90
53711;DHT22;39605;52.704;6.752;2022-10-30T16:49:26;17.30;99.90
53711;DHT22;39605;52.704;6.752;2022-10-30T16:52:02;17.20;99.90
53711;DHT22;39605;52.704;6.752;2022-10-30T16:54:30;17.20;99.90
53711;DHT22;39605;52.704;6.752;2022-10-30T16:56:59;17.20;99.90
53711;DHT22;39605;52.704;6.752;2022-10-30T16:59:32;17.20;99.90
53711;DHT22;39605;52.704;6.752;2022-10-30T17:02:03;17.20;99.90
53711;DHT22;39605;52.704;6.752;2022-10-30T17:04:31;17.20;99.90
53711;DHT22;39605;52.704;6.752;2022-10-30T17:07:06;17.20;99.90
53711;DHT22;39605;52.704;6.752;2022-10-30T17:09:39;17.10;99.90
53711;DHT22;39605;52.704;6.752;2022-10-30T17:14:51;17.10;99.90
53711;DHT22;39605;52.704;6.752;2022-10-30T17:17:26;17.00;99.90
53711;DHT22;39605;52.704;6.752;2022-10-30T17:20:00;17.00;99.90
53711;DHT22;39605;52.704;6.752;2022-10-30T17:22:27;17.00;99.90
53711;DHT22;39605;52.704;6.752;2022-10-30T17:24:53;16.90;99.90
53711;DHT22;39605;52.704;6.752;2022-10-30T17:29:52;16.90;99.90
53711;DHT22;39605;52.704;6.752;2022-10-30T17:32:23;16.90;99.90
53711;DHT22;39605;52.704;6.752;2022-10-30T17:34:59;16.90;99.90
53711;DHT22;39605;52.704;6.752;2022-10-30T17:37:25;16.90;99.90
53711;DHT22;39605;52.704;6.752;2022-10-30T17:39:51;16.80;99.90
53711;DHT22;39605;52.704;6.752;2022-10-30T17:42:17;16.80;99.90
53711;DHT22;39605;52.704;6.752;2022-10-30T17:44:42;16.80;99.90
53711;DHT22;39605;52.704;6.752;2022-10-30T17:47:15;16.80;99.90
53711;DHT22;39605;52.704;6.752;2022-10-30T17:49:41;16.80;99.90
53711;DHT22;39605;52.704;6.752;2022-10-30T17:52:11;16.80;99.90
53711;DHT22;39605;52.704;6.752;2022-10-30T17:54:36;16.80;99.90